Weather at LOWW

Observation Time:
Raw: LOWW 212250Z 29019G29KT CAVOK 01/M06 Q1023 NOSIG

Local Time

UTC Time